サンティアゴ の空港の天気 - METARとTAF

アルトゥーロ・メリノ・ベニテス国際空港(サンティアゴ) ( SCEL / SCL ) - チリ サンティアゴ
飛行場実況気象(Metar)
観測時間10/18 20:00 CLST (10/18 23:00 UTC)
風向・風速南南西 7m/s
視程10km以上
天気現象
なし
気温18℃
湿度49%
気圧1017hPa
METARSCEL 182300Z 21013KT CAVOK 18/07 Q1017 NOSIG
過去の天気等 Google飛行場航空写真 Wunderground天気予報

過去48時間のMETAR

飛行場予報(TAF)
発表時間: 10/18 13:10 CLST (10/18 16:10 UTC)
予報対象時間: 18日15時 CLST ~ 19日15時 CLST
風向・風速南 5m/s
視程10km以上
なし
18日17時 CLST ~ 18日19時 CLST に徐々に
風向・風速南西 6m/s
18日23時 CLST ~ 19日1時 CLST に徐々に
風向・風速南南東 3m/s
19日3時 CLST ~ 19日5時 CLST に徐々に
風向・風速不定 1m/s
視程7000m
なし
19日11時 CLST ~ 19日13時 CLST に徐々に
風向・風速南 3m/s
視程10km以上
なし
TAF SCEL 181610Z 1818/1918 17010KT CAVOK TX23/1819Z TN06/1911Z
BECMG 1820/1822 22012KT
BECMG 1902/1904 16005KT
BECMG 1906/1908 VRB02KT 7000 NSC
BECMG 1914/1916 17005KT CAVOK